createdAt,value
2018-02-17T00:02:13.096Z,18.00
2018-02-17T00:07:22.521Z,17.90
2018-02-17T00:12:28.015Z,19.10
2018-02-17T00:17:38.776Z,17.50
2018-02-17T00:22:48.210Z,19.30
2018-02-17T00:27:55.880Z,20.60
2018-02-17T00:33:03.966Z,14.40
2018-02-17T00:38:09.857Z,18.80
2018-02-17T00:43:15.040Z,18.30
2018-02-17T00:48:24.880Z,16.70
2018-02-17T00:53:34.233Z,17.60
2018-02-17T00:58:43.797Z,16.60
2018-02-17T01:03:53.917Z,18.00
2018-02-17T01:09:02.274Z,16.30
2018-02-17T01:14:10.187Z,18.30
2018-02-17T01:19:19.899Z,20.60
2018-02-17T01:24:28.891Z,18.40
2018-02-17T01:29:39.150Z,20.60
2018-02-17T01:34:48.191Z,21.60
2018-02-17T01:39:57.544Z,17.40
2018-02-17T01:45:07.291Z,18.50
2018-02-17T01:50:15.995Z,16.90
2018-02-17T01:55:25.396Z,18.60
2018-02-17T02:00:34.667Z,20.50
2018-02-17T02:05:44.668Z,16.90
2018-02-17T02:10:51.739Z,23.00
2018-02-17T02:16:02.959Z,19.50
2018-02-17T02:21:11.280Z,20.00
2018-02-17T02:26:22.009Z,21.80
2018-02-17T02:31:32.854Z,18.90
2018-02-17T02:36:49.385Z,18.80
2018-02-17T02:41:57.019Z,21.60
2018-02-17T02:47:06.247Z,19.10
2018-02-17T02:52:14.788Z,19.40
2018-02-17T02:57:24.750Z,18.10
2018-02-17T03:02:34.252Z,19.40
2018-02-17T03:08:17.938Z,16.70
2018-02-17T03:13:12.231Z,17.10
2018-02-17T03:18:21.953Z,20.60
2018-02-17T03:23:31.520Z,19.10
2018-02-17T03:28:42.465Z,18.80
2018-02-17T03:33:51.423Z,19.70
2018-02-17T03:38:58.140Z,20.80
2018-02-17T03:44:07.664Z,18.00
2018-02-17T03:49:13.570Z,19.90
2018-02-17T03:54:23.352Z,15.20
2018-02-17T03:59:33.692Z,18.80
2018-02-17T04:04:42.542Z,20.10
2018-02-17T04:09:51.310Z,17.90
2018-02-17T04:14:57.192Z,18.10
2018-02-17T04:20:05.765Z,16.70
2018-02-17T04:25:12.195Z,19.10
2018-02-17T04:30:18.490Z,18.00
2018-02-17T04:35:24.293Z,18.30
2018-02-17T04:40:29.999Z,21.20
2018-02-17T04:45:33.617Z,16.60
2018-02-17T04:50:38.492Z,19.80
2018-02-17T04:55:47.210Z,17.70
2018-02-17T05:00:52.767Z,15.80
2018-02-17T05:05:56.393Z,17.60
2018-02-17T05:11:02.264Z,19.60
2018-02-17T05:16:07.569Z,18.30
2018-02-17T05:21:13.224Z,18.20
2018-02-17T05:26:18.275Z,22.60
2018-02-17T05:31:23.869Z,19.50
2018-02-17T05:36:29.285Z,17.80
2018-02-17T05:41:34.773Z,16.60
2018-02-17T05:46:44.296Z,15.50
2018-02-17T05:51:48.074Z,18.40
2018-02-17T05:56:52.785Z,20.30
2018-02-17T06:01:58.018Z,19.40
2018-02-17T06:07:03.618Z,16.30
2018-02-17T06:12:08.568Z,15.50
2018-02-17T06:17:14.200Z,16.60
2018-02-17T06:22:18.023Z,19.40
2018-02-17T06:27:23.015Z,18.10
2018-02-17T06:32:28.170Z,16.50
2018-02-17T06:37:32.706Z,19.00
2018-02-17T13:29:58.488Z,12.70
2018-02-17T13:35:00.635Z,11.10
2018-02-17T13:40:05.065Z,12.10
2018-02-17T13:45:11.330Z,14.20
2018-02-17T13:50:20.857Z," 9.60"
2018-02-17T13:55:26.582Z,13.70
2018-02-17T14:00:31.668Z,12.80
2018-02-17T14:05:40.247Z,11.00
2018-02-17T14:10:50.224Z,13.30
2018-02-17T14:15:57.935Z,12.70
2018-02-17T14:21:06.961Z,14.10
2018-02-17T14:26:16.248Z,14.20
2018-02-17T14:31:21.744Z,11.30
2018-02-17T14:36:29.242Z,12.40
2018-02-17T14:41:34.094Z,13.20
2018-02-17T14:46:37.715Z,12.80
2018-02-17T14:51:47.161Z,12.30
2018-02-17T14:56:53.031Z,14.00
2018-02-17T15:02:02.956Z,11.20
2018-02-17T15:07:08.925Z,16.90
2018-02-17T15:12:17.756Z,10.70
2018-02-17T15:17:24.435Z," 9.90"
2018-02-17T15:22:29.119Z,13.40
2018-02-17T15:27:37.038Z,13.20
2018-02-17T15:32:42.906Z,12.70
2018-02-17T15:37:48.036Z,13.30
2018-02-17T15:42:52.232Z,11.00
2018-02-17T15:47:58.391Z,13.00
2018-02-17T15:53:03.685Z,11.20
2018-02-17T15:58:09.150Z,13.20
2018-02-17T16:03:18.627Z,12.00
2018-02-17T16:08:27.480Z,11.10
2018-02-17T16:13:39.485Z," 7.50"
2018-02-17T16:18:48.450Z," 8.30"
2018-02-17T16:23:55.838Z,10.70
2018-02-17T16:29:00.439Z,11.80
2018-02-17T16:34:06.809Z," 9.50"
2018-02-17T16:39:16.278Z," 9.40"
2018-02-17T16:44:25.950Z,10.60
2018-02-17T16:49:33.214Z,13.50
2018-02-17T20:59:37.011Z,29.90
2018-02-17T21:04:41.848Z,27.70
2018-02-17T21:09:50.090Z,26.60
2018-02-17T21:14:57.979Z,29.60
2018-02-17T21:20:06.016Z,25.40
2018-02-17T21:25:14.109Z,28.20
2018-02-17T21:30:23.292Z,29.30
2018-02-17T21:40:38.509Z,30.80
2018-02-17T21:45:46.971Z,26.30
2018-02-17T21:50:55.040Z,22.20
2018-02-17T21:56:03.956Z,25.30
2018-02-17T22:01:15.953Z,28.40
2018-02-17T22:06:24.711Z,28.90
2018-02-17T22:11:29.910Z,30.10
2018-02-17T22:16:37.106Z,26.90
2018-02-17T22:21:46.240Z,27.90
2018-02-17T22:26:54.742Z,29.00
2018-02-17T22:32:02.658Z,26.80
2018-02-17T22:37:12.256Z,27.80
2018-02-17T22:42:21.539Z,30.20
2018-02-17T22:47:30.942Z,26.90
2018-02-17T22:52:39.792Z,26.80
2018-02-17T22:57:53.930Z,25.90
2018-02-17T23:03:03.633Z,29.00
2018-02-17T23:08:13.482Z,25.70
2018-02-17T23:13:22.215Z,24.20
2018-02-17T23:18:32.420Z,23.50
2018-02-17T23:23:41.784Z,25.30
2018-02-17T23:28:51.866Z,24.40
2018-02-17T23:34:01.646Z,27.50
2018-02-17T23:39:12.847Z,24.10
2018-02-17T23:44:21.061Z,25.10
2018-02-17T23:49:30.599Z,24.40
2018-02-17T23:54:39.652Z,27.10
2018-02-17T23:59:48.925Z,29.70
